sensor_id;sensor_type;location;lat;lon;timestamp;pressure;altitude;pressure_sealevel;temperature;humidity
8280;BME280;8335;42.646;23.380;2022-09-12T00:02:14;94182.94;;;15.89;100.00
8280;BME280;8335;42.646;23.380;2022-09-12T00:04:41;94201.38;;;15.94;100.00
8280;BME280;8335;42.646;23.380;2022-09-12T00:07:08;94204.28;;;15.90;100.00
8280;BME280;8335;42.646;23.380;2022-09-12T00:09:36;94197.97;;;15.83;100.00
8280;BME280;8335;42.646;23.380;2022-09-12T00:12:04;94199.88;;;15.81;100.00
8280;BME280;8335;42.646;23.380;2022-09-12T00:14:31;94204.78;;;15.73;100.00
8280;BME280;8335;42.646;23.380;2022-09-12T00:16:58;94209.78;;;15.74;100.00
8280;BME280;8335;42.646;23.380;2022-09-12T00:19:25;94208.50;;;15.68;100.00
8280;BME280;8335;42.646;23.380;2022-09-12T00:21:52;94207.09;;;15.64;100.00
8280;BME280;8335;42.646;23.380;2022-09-12T00:24:18;94211.13;;;15.56;100.00
8280;BME280;8335;42.646;23.380;2022-09-12T00:26:47;94216.06;;;15.59;100.00
8280;BME280;8335;42.646;23.380;2022-09-12T00:29:15;94213.50;;;15.59;100.00
8280;BME280;8335;42.646;23.380;2022-09-12T00:31:42;94217.09;;;15.56;100.00
8280;BME280;8335;42.646;23.380;2022-09-12T00:34:09;94213.13;;;15.52;100.00
8280;BME280;8335;42.646;23.380;2022-09-12T00:36:37;94220.00;;;15.52;100.00
8280;BME280;8335;42.646;23.380;2022-09-12T00:39:05;94210.09;;;15.36;100.00
8280;BME280;8335;42.646;23.380;2022-09-12T00:41:34;94211.13;;;15.33;100.00
8280;BME280;8335;42.646;23.380;2022-09-12T00:44:43;94207.03;;;15.31;100.00
8280;BME280;8335;42.646;23.380;2022-09-12T00:47:15;94211.00;;;15.35;100.00
8280;BME280;8335;42.646;23.380;2022-09-12T00:49:44;94214.16;;;15.38;100.00
8280;BME280;8335;42.646;23.380;2022-09-12T00:52:16;94213.91;;;15.41;100.00
8280;BME280;8335;42.646;23.380;2022-09-12T00:54:49;94209.72;;;15.40;100.00
8280;BME280;8335;42.646;23.380;2022-09-12T00:57:20;94210.19;;;15.34;100.00
8280;BME280;8335;42.646;23.380;2022-09-12T00:59:53;94214.38;;;15.35;100.00
8280;BME280;8335;42.646;23.380;2022-09-12T01:02:20;94211.38;;;15.30;100.00
8280;BME280;8335;42.646;23.380;2022-09-12T01:04:48;94208.44;;;15.35;100.00
8280;BME280;8335;42.646;23.380;2022-09-12T01:07:15;94198.41;;;15.32;100.00
8280;BME280;8335;42.646;23.380;2022-09-12T01:09:43;94202.72;;;15.31;100.00
8280;BME280;8335;42.646;23.380;2022-09-12T01:12:11;94198.06;;;15.25;100.00
8280;BME280;8335;42.646;23.380;2022-09-12T01:14:39;94194.78;;;15.23;100.00
8280;BME280;8335;42.646;23.380;2022-09-12T01:17:11;94187.56;;;15.17;100.00
8280;BME280;8335;42.646;23.380;2022-09-12T01:20:15;94192.56;;;15.19;100.00
8280;BME280;8335;42.646;23.380;2022-09-12T01:23:05;94191.06;;;15.16;100.00
8280;BME280;8335;42.646;23.380;2022-09-12T01:25:43;94188.69;;;15.13;100.00
8280;BME280;8335;42.646;23.380;2022-09-12T01:28:35;94190.31;;;15.14;100.00
8280;BME280;8335;42.646;23.380;2022-09-12T01:31:14;94196.03;;;15.06;100.00
8280;BME280;8335;42.646;23.380;2022-09-12T01:33:55;94192.28;;;14.99;100.00
8280;BME280;8335;42.646;23.380;2022-09-12T01:36:33;94194.16;;;14.97;100.00
8280;BME280;8335;42.646;23.380;2022-09-12T01:39:04;94156.78;;;14.71;100.00
8280;BME280;8335;42.646;23.380;2022-09-12T01:41:40;94190.88;;;14.95;100.00
8280;BME280;8335;42.646;23.380;2022-09-12T01:44:13;94198.91;;;14.91;100.00
8280;BME280;8335;42.646;23.380;2022-09-12T01:46:53;94190.63;;;14.87;100.00
8280;BME280;8335;42.646;23.380;2022-09-12T01:49:24;94188.41;;;14.82;100.00
8280;BME280;8335;42.646;23.380;2022-09-12T01:51:57;94189.44;;;14.80;100.00
8280;BME280;8335;42.646;23.380;2022-09-12T01:54:30;94188.16;;;14.74;100.00
8280;BME280;8335;42.646;23.380;2022-09-12T01:57:03;94190.09;;;14.71;100.00
8280;BME280;8335;42.646;23.380;2022-09-12T01:59:36;94184.50;;;14.66;100.00
8280;BME280;8335;42.646;23.380;2022-09-12T02:02:08;94176.22;;;14.62;100.00
8280;BME280;8335;42.646;23.380;2022-09-12T02:04:41;94178.91;;;14.61;100.00
8280;BME280;8335;42.646;23.380;2022-09-12T02:07:15;94188.91;;;14.64;100.00
8280;BME280;8335;42.646;23.380;2022-09-12T02:09:47;94181.47;;;14.61;100.00
8280;BME280;8335;42.646;23.380;2022-09-12T02:12:18;94177.09;;;14.50;100.00
8280;BME280;8335;42.646;23.380;2022-09-12T02:14:50;94182.22;;;14.50;100.00
8280;BME280;8335;42.646;23.380;2022-09-12T02:17:22;94186.84;;;14.45;100.00
8280;BME280;8335;42.646;23.380;2022-09-12T02:19:53;94190.22;;;14.45;100.00
8280;BME280;8335;42.646;23.380;2022-09-12T02:22:22;94163.16;;;14.30;100.00
8280;BME280;8335;42.646;23.380;2022-09-12T02:24:53;94195.53;;;14.42;100.00
8280;BME280;8335;42.646;23.380;2022-09-12T02:27:23;94197.22;;;14.43;100.00
8280;BME280;8335;42.646;23.380;2022-09-12T02:29:52;94192.16;;;14.42;100.00
8280;BME280;8335;42.646;23.380;2022-09-12T02:32:26;94189.03;;;14.38;100.00
8280;BME280;8335;42.646;23.380;2022-09-12T02:34:59;94178.41;;;14.31;100.00
8280;BME280;8335;42.646;23.380;2022-09-12T02:37:39;94193.44;;;14.36;100.00
8280;BME280;8335;42.646;23.380;2022-09-12T02:40:08;94190.16;;;14.34;100.00
8280;BME280;8335;42.646;23.380;2022-09-12T02:42:35;94202.25;;;14.32;100.00
8280;BME280;8335;42.646;23.380;2022-09-12T02:45:03;94201.56;;;14.30;100.00
8280;BME280;8335;42.646;23.380;2022-09-12T02:47:36;94194.41;;;14.22;100.00
8280;BME280;8335;42.646;23.380;2022-09-12T02:50:05;94194.69;;;14.30;100.00
8280;BME280;8335;42.646;23.380;2022-09-12T02:52:33;94199.94;;;14.29;100.00
8280;BME280;8335;42.646;23.380;2022-09-12T02:55:01;94192.13;;;14.30;100.00
8280;BME280;8335;42.646;23.380;2022-09-12T02:57:29;94199.19;;;14.27;100.00
8280;BME280;8335;42.646;23.380;2022-09-12T02:59:59;94198.81;;;14.20;100.00
8280;BME280;8335;42.646;23.380;2022-09-12T03:02:34;94197.81;;;14.23;100.00
8280;BME280;8335;42.646;23.380;2022-09-12T03:05:19;94205.69;;;14.20;100.00
8280;BME280;8335;42.646;23.380;2022-09-12T03:08:11;94209.78;;;14.22;100.00
8280;BME280;8335;42.646;23.380;2022-09-12T03:10:46;94218.16;;;14.24;100.00
8280;BME280;8335;42.646;23.380;2022-09-12T03:13:21;94218.38;;;14.21;100.00
8280;BME280;8335;42.646;23.380;2022-09-12T03:15:59;94220.84;;;14.23;100.00
8280;BME280;8335;42.646;23.380;2022-09-12T03:18:44;94211.31;;;14.25;100.00
8280;BME280;8335;42.646;23.380;2022-09-12T03:21:21;94222.69;;;14.21;100.00
8280;BME280;8335;42.646;23.380;2022-09-12T03:24:04;94213.78;;;14.14;100.00
8280;BME280;8335;42.646;23.380;2022-09-12T03:26:38;94209.59;;;14.13;100.00
8280;BME280;8335;42.646;23.380;2022-09-12T03:29:09;94210.53;;;14.12;100.00
8280;BME280;8335;42.646;23.380;2022-09-12T03:31:47;94203.66;;;14.12;100.00
8280;BME280;8335;42.646;23.380;2022-09-12T03:34:16;94206.84;;;14.16;100.00
8280;BME280;8335;42.646;23.380;2022-09-12T03:36:43;94215.34;;;14.16;100.00
8280;BME280;8335;42.646;23.380;2022-09-12T03:39:09;94214.28;;;14.19;100.00
8280;BME280;8335;42.646;23.380;2022-09-12T03:41:36;94214.59;;;14.14;100.00
8280;BME280;8335;42.646;23.380;2022-09-12T03:44:03;94209.47;;;14.14;100.00
8280;BME280;8335;42.646;23.380;2022-09-12T03:46:30;94197.34;;;14.05;100.00
8280;BME280;8335;42.646;23.380;2022-09-12T03:48:57;94212.16;;;14.13;100.00
8280;BME280;8335;42.646;23.380;2022-09-12T03:51:25;94206.75;;;14.04;100.00
8280;BME280;8335;42.646;23.380;2022-09-12T03:53:52;94208.38;;;14.05;100.00
8280;BME280;8335;42.646;23.380;2022-09-12T03:56:19;94202.56;;;14.03;100.00
8280;BME280;8335;42.646;23.380;2022-09-12T03:58:46;94212.50;;;14.08;100.00
8280;BME280;8335;42.646;23.380;2022-09-12T04:01:14;94213.31;;;14.09;100.00
8280;BME280;8335;42.646;23.380;2022-09-12T04:03:42;94209.81;;;14.10;100.00
8280;BME280;8335;42.646;23.380;2022-09-12T04:06:11;94203.66;;;14.12;100.00
8280;BME280;8335;42.646;23.380;2022-09-12T04:08:41;94201.09;;;14.12;100.00
8280;BME280;8335;42.646;23.380;2022-09-12T04:11:11;94216.69;;;14.09;100.00
8280;BME280;8335;42.646;23.380;2022-09-12T04:13:39;94213.31;;;14.09;100.00
8280;BME280;8335;42.646;23.380;2022-09-12T04:16:06;94217.81;;;14.05;100.00
8280;BME280;8335;42.646;23.380;2022-09-12T04:18:33;94217.69;;;14.07;100.00
8280;BME280;8335;42.646;23.380;2022-09-12T04:21:03;94215.38;;;14.03;100.00
8280;BME280;8335;42.646;23.380;2022-09-12T04:23:30;94214.94;;;14.10;100.00
8280;BME280;8335;42.646;23.380;2022-09-12T04:25:59;94217.94;;;14.27;100.00
8280;BME280;8335;42.646;23.380;2022-09-12T04:28:28;94222.72;;;14.45;100.00
8280;BME280;8335;42.646;23.380;2022-09-12T04:30:55;94217.72;;;14.78;100.00
8280;BME280;8335;42.646;23.380;2022-09-12T04:33:22;94227.19;;;15.35;97.20
8280;BME280;8335;42.646;23.380;2022-09-12T04:35:48;94230.91;;;15.66;94.31
8280;BME280;8335;42.646;23.380;2022-09-12T04:38:15;94230.44;;;15.73;93.59
8280;BME280;8335;42.646;23.380;2022-09-12T04:40:42;94228.91;;;15.70;93.46
8280;BME280;8335;42.646;23.380;2022-09-12T04:43:10;94228.34;;;15.66;93.75
8280;BME280;8335;42.646;23.380;2022-09-12T04:45:37;94232.19;;;15.72;94.29
8280;BME280;8335;42.646;23.380;2022-09-12T04:48:03;94227.44;;;16.33;93.11
8280;BME280;8335;42.646;23.380;2022-09-12T04:50:30;94239.06;;;17.45;87.08
8280;BME280;8335;42.646;23.380;2022-09-12T04:52:57;94237.09;;;18.69;80.61
8280;BME280;8335;42.646;23.380;2022-09-12T04:55:24;94243.69;;;19.68;76.33
8280;BME280;8335;42.646;23.380;2022-09-12T04:57:50;94252.28;;;20.61;71.48
8280;BME280;8335;42.646;23.380;2022-09-12T05:00:19;94232.03;;;21.28;67.99
8280;BME280;8335;42.646;23.380;2022-09-12T05:02:46;94255.94;;;22.60;63.56
8280;BME280;8335;42.646;23.380;2022-09-12T05:05:13;94255.72;;;23.03;60.83
8280;BME280;8335;42.646;23.380;2022-09-12T05:07:40;94258.34;;;23.20;59.89
8280;BME280;8335;42.646;23.380;2022-09-12T05:10:08;94259.69;;;22.65;60.71
8280;BME280;8335;42.646;23.380;2022-09-12T05:12:34;94253.34;;;21.91;62.99
8280;BME280;8335;42.646;23.380;2022-09-12T05:15:01;94245.34;;;20.97;66.20
8280;BME280;8335;42.646;23.380;2022-09-12T05:17:30;94246.56;;;20.30;69.38
8280;BME280;8335;42.646;23.380;2022-09-12T05:19:57;94240.00;;;19.71;71.84
8280;BME280;8335;42.646;23.380;2022-09-12T05:22:24;94245.34;;;19.21;74.44
8280;BME280;8335;42.646;23.380;2022-09-12T05:24:50;94241.97;;;18.82;75.92
8280;BME280;8335;42.646;23.380;2022-09-12T05:27:17;94241.91;;;18.53;76.78
8280;BME280;8335;42.646;23.380;2022-09-12T05:29:44;94239.16;;;18.25;78.15
8280;BME280;8335;42.646;23.380;2022-09-12T05:32:11;94235.63;;;17.86;80.06
8280;BME280;8335;42.646;23.380;2022-09-12T05:34:39;94235.56;;;17.76;80.99
8280;BME280;8335;42.646;23.380;2022-09-12T05:37:06;94243.06;;;17.79;81.14
8280;BME280;8335;42.646;23.380;2022-09-12T05:39:32;94241.81;;;17.74;81.11
8280;BME280;8335;42.646;23.380;2022-09-12T05:41:59;94246.44;;;17.59;82.01
8280;BME280;8335;42.646;23.380;2022-09-12T05:44:26;94236.88;;;17.50;82.28
8280;BME280;8335;42.646;23.380;2022-09-12T05:46:53;94231.34;;;17.24;83.72
8280;BME280;8335;42.646;23.380;2022-09-12T05:49:20;94230.66;;;17.22;83.76
8280;BME280;8335;42.646;23.380;2022-09-12T05:51:48;94232.84;;;17.26;84.18
8280;BME280;8335;42.646;23.380;2022-09-12T05:54:17;94232.66;;;17.39;84.27
8280;BME280;8335;42.646;23.380;2022-09-12T05:56:46;94227.28;;;18.03;82.15
8280;BME280;8335;42.646;23.380;2022-09-12T05:59:14;94234.72;;;19.53;76.28
8280;BME280;8335;42.646;23.380;2022-09-12T06:01:41;94231.59;;;20.97;68.97
8280;BME280;8335;42.646;23.380;2022-09-12T06:04:09;94219.31;;;22.20;63.42
8280;BME280;8335;42.646;23.380;2022-09-12T06:06:38;94228.44;;;23.56;58.76
8280;BME280;8335;42.646;23.380;2022-09-12T06:09:07;94239.00;;;24.74;53.91
8280;BME280;8335;42.646;23.380;2022-09-12T06:11:36;94241.59;;;25.66;50.77
8280;BME280;8335;42.646;23.380;2022-09-12T06:14:05;94248.13;;;26.73;47.77
8280;BME280;8335;42.646;23.380;2022-09-12T06:16:34;94240.97;;;27.18;44.78
8280;BME280;8335;42.646;23.380;2022-09-12T06:19:03;94235.66;;;27.54;44.10
8280;BME280;8335;42.646;23.380;2022-09-12T06:21:31;94236.31;;;28.54;42.47
8280;BME280;8335;42.646;23.380;2022-09-12T06:24:00;94245.06;;;29.75;38.94
8280;BME280;8335;42.646;23.380;2022-09-12T06:26:28;94242.22;;;29.96;38.08
8280;BME280;8335;42.646;23.380;2022-09-12T06:28:58;94235.34;;;30.02;38.14
8280;BME280;8335;42.646;23.380;2022-09-12T06:31:26;94248.91;;;30.77;36.23
8280;BME280;8335;42.646;23.380;2022-09-12T06:33:55;94256.88;;;31.40;34.92
8280;BME280;8335;42.646;23.380;2022-09-12T06:36:24;94262.41;;;31.57;34.72
8280;BME280;8335;42.646;23.380;2022-09-12T06:38:55;94265.97;;;31.69;34.85
8280;BME280;8335;42.646;23.380;2022-09-12T06:41:22;94277.69;;;31.73;34.51
8280;BME280;8335;42.646;23.380;2022-09-12T06:43:51;94261.03;;;31.54;34.10
8280;BME280;8335;42.646;23.380;2022-09-12T06:46:19;94277.25;;;31.76;33.81
8280;BME280;8335;42.646;23.380;2022-09-12T06:48:45;94289.38;;;32.09;33.87
8280;BME280;8335;42.646;23.380;2022-09-12T06:51:15;94285.97;;;32.26;33.57
8280;BME280;8335;42.646;23.380;2022-09-12T06:53:43;94276.03;;;31.54;33.87
8280;BME280;8335;42.646;23.380;2022-09-12T06:56:13;94270.22;;;31.45;33.26
8280;BME280;8335;42.646;23.380;2022-09-12T06:58:40;94282.47;;;31.19;33.95
8280;BME280;8335;42.646;23.380;2022-09-12T07:01:10;94286.09;;;30.87;34.32
8280;BME280;8335;42.646;23.380;2022-09-12T07:03:38;94293.88;;;30.35;35.39
8280;BME280;8335;42.646;23.380;2022-09-12T07:06:07;94285.84;;;30.10;36.37
8280;BME280;8335;42.646;23.380;2022-09-12T07:08:34;94264.41;;;30.07;36.98
8280;BME280;8335;42.646;23.380;2022-09-12T07:11:08;94291.47;;;30.07;36.35
8280;BME280;8335;42.646;23.380;2022-09-12T07:13:36;94292.72;;;30.18;36.35
8280;BME280;8335;42.646;23.380;2022-09-12T07:16:03;94302.19;;;30.32;36.13
8280;BME280;8335;42.646;23.380;2022-09-12T07:18:32;94308.03;;;31.06;34.77
8280;BME280;8335;42.646;23.380;2022-09-12T07:20:59;94301.22;;;30.91;34.29
8280;BME280;8335;42.646;23.380;2022-09-12T07:23:26;94299.59;;;30.90;34.81
8280;BME280;8335;42.646;23.380;2022-09-12T07:25:53;94305.31;;;31.32;34.11
8280;BME280;8335;42.646;23.380;2022-09-12T07:28:21;94308.94;;;31.31;34.76
8280;BME280;8335;42.646;23.380;2022-09-12T07:30:48;94300.84;;;31.33;34.75
8280;BME280;8335;42.646;23.380;2022-09-12T07:33:15;94304.22;;;30.17;35.94
8280;BME280;8335;42.646;23.380;2022-09-12T07:35:44;94290.06;;;29.52;36.12
8280;BME280;8335;42.646;23.380;2022-09-12T07:38:10;94311.13;;;29.04;36.66
8280;BME280;8335;42.646;23.380;2022-09-12T07:40:37;94296.88;;;28.85;38.10
8280;BME280;8335;42.646;23.380;2022-09-12T07:43:05;94297.47;;;28.74;37.77
8280;BME280;8335;42.646;23.380;2022-09-12T07:45:31;94298.25;;;28.68;38.64
8280;BME280;8335;42.646;23.380;2022-09-12T07:47:58;94285.81;;;28.83;38.76
8280;BME280;8335;42.646;23.380;2022-09-12T07:50:25;94290.28;;;28.48;38.63
8280;BME280;8335;42.646;23.380;2022-09-12T07:52:54;94287.72;;;28.61;38.58
8280;BME280;8335;42.646;23.380;2022-09-12T07:55:20;94292.19;;;28.67;37.58
8280;BME280;8335;42.646;23.380;2022-09-12T07:57:48;94290.53;;;29.01;37.41
8280;BME280;8335;42.646;23.380;2022-09-12T08:00:15;94292.84;;;29.30;37.34
8280;BME280;8335;42.646;23.380;2022-09-12T08:02:42;94296.75;;;29.74;35.43
8280;BME280;8335;42.646;23.380;2022-09-12T08:05:09;94300.53;;;30.51;34.57
8280;BME280;8335;42.646;23.380;2022-09-12T08:07:36;94301.50;;;30.63;34.12
8280;BME280;8335;42.646;23.380;2022-09-12T08:10:05;94302.28;;;30.64;34.27
8280;BME280;8335;42.646;23.380;2022-09-12T08:12:32;94308.78;;;30.55;33.06
8280;BME280;8335;42.646;23.380;2022-09-12T08:14:59;94302.97;;;30.46;33.83
8280;BME280;8335;42.646;23.380;2022-09-12T08:17:26;94298.56;;;30.20;34.61
8280;BME280;8335;42.646;23.380;2022-09-12T08:19:53;94304.00;;;29.99;34.39
8280;BME280;8335;42.646;23.380;2022-09-12T08:22:20;94304.44;;;30.16;33.92
8280;BME280;8335;42.646;23.380;2022-09-12T08:24:47;94275.69;;;30.34;33.60
8280;BME280;8335;42.646;23.380;2022-09-12T08:27:16;94312.19;;;30.82;33.36
8280;BME280;8335;42.646;23.380;2022-09-12T08:29:42;94306.16;;;31.19;33.33
8280;BME280;8335;42.646;23.380;2022-09-12T08:32:09;94306.38;;;30.66;33.62
8280;BME280;8335;42.646;23.380;2022-09-12T08:34:36;94304.41;;;29.96;34.46
8280;BME280;8335;42.646;23.380;2022-09-12T08:37:03;94295.84;;;29.34;35.45
8280;BME280;8335;42.646;23.380;2022-09-12T08:39:29;94284.06;;;28.97;36.62
8280;BME280;8335;42.646;23.380;2022-09-12T08:42:00;94292.84;;;29.30;36.32
8280;BME280;8335;42.646;23.380;2022-09-12T08:44:43;94292.41;;;29.20;36.09
8280;BME280;8335;42.646;23.380;2022-09-12T08:47:22;94292.34;;;28.52;37.26
8280;BME280;8335;42.646;23.380;2022-09-12T08:49:59;94292.00;;;27.35;39.48
8280;BME280;8335;42.646;23.380;2022-09-12T08:52:34;94288.03;;;27.18;40.16
8280;BME280;8335;42.646;23.380;2022-09-12T08:55:02;94276.47;;;26.76;41.36
8280;BME280;8335;42.646;23.380;2022-09-12T08:57:31;94285.88;;;26.56;40.51
8280;BME280;8335;42.646;23.380;2022-09-12T09:00:02;94279.19;;;26.09;41.74
8280;BME280;8335;42.646;23.380;2022-09-12T09:02:58;94278.44;;;25.86;42.62
8280;BME280;8335;42.646;23.380;2022-09-12T09:05:42;94276.56;;;25.71;42.99
8280;BME280;8335;42.646;23.380;2022-09-12T09:08:21;94271.94;;;25.44;43.54
8280;BME280;8335;42.646;23.380;2022-09-12T09:10:58;94262.28;;;25.30;44.15
8280;BME280;8335;42.646;23.380;2022-09-12T09:13:37;94271.81;;;25.14;44.78
8280;BME280;8335;42.646;23.380;2022-09-12T09:16:43;94243.66;;;24.87;44.62
8280;BME280;8335;42.646;23.380;2022-09-12T09:19:14;94258.94;;;25.36;43.73
8280;BME280;8335;42.646;23.380;2022-09-12T09:21:49;94251.56;;;25.62;42.49
8280;BME280;8335;42.646;23.380;2022-09-12T09:24:22;94262.44;;;26.03;41.56
8280;BME280;8335;42.646;23.380;2022-09-12T09:26:53;94262.97;;;26.73;40.95
8280;BME280;8335;42.646;23.380;2022-09-12T09:29:23;94271.19;;;27.06;40.26
8280;BME280;8335;42.646;23.380;2022-09-12T09:31:57;94270.50;;;27.61;38.80
8280;BME280;8335;42.646;23.380;2022-09-12T09:34:28;94270.03;;;27.30;39.62
8280;BME280;8335;42.646;23.380;2022-09-12T09:37:01;94248.25;;;27.44;39.27
8280;BME280;8335;42.646;23.380;2022-09-12T09:39:42;94255.75;;;27.75;39.25
8280;BME280;8335;42.646;23.380;2022-09-12T09:42:20;94259.38;;;27.53;38.10
8280;BME280;8335;42.646;23.380;2022-09-12T09:44:52;94259.44;;;26.80;39.26
8280;BME280;8335;42.646;23.380;2022-09-12T09:47:23;94245.66;;;26.86;39.49
8280;BME280;8335;42.646;23.380;2022-09-12T09:49:49;94250.38;;;26.98;39.35
8280;BME280;8335;42.646;23.380;2022-09-12T09:52:23;94246.06;;;26.54;41.18
8280;BME280;8335;42.646;23.380;2022-09-12T09:54:52;94242.66;;;26.53;40.52
8280;BME280;8335;42.646;23.380;2022-09-12T09:57:39;94248.00;;;26.81;39.68
8280;BME280;8335;42.646;23.380;2022-09-12T10:00:29;94204.16;;;26.11;40.95
8280;BME280;8335;42.646;23.380;2022-09-12T10:03:15;94238.34;;;25.87;41.00
8280;BME280;8335;42.646;23.380;2022-09-12T10:05:48;94241.41;;;25.67;41.75
8280;BME280;8335;42.646;23.380;2022-09-12T10:08:20;94231.19;;;25.43;43.99
8280;BME280;8335;42.646;23.380;2022-09-12T10:11:02;94246.09;;;26.10;42.17
8280;BME280;8335;42.646;23.380;2022-09-12T10:13:40;94238.69;;;26.94;41.13
8280;BME280;8335;42.646;23.380;2022-09-12T10:16:17;94238.16;;;27.20;39.18
8280;BME280;8335;42.646;23.380;2022-09-12T10:18:47;94190.84;;;27.36;38.66
8280;BME280;8335;42.646;23.380;2022-09-12T10:21:28;94229.66;;;27.82;36.89
8280;BME280;8335;42.646;23.380;2022-09-12T10:24:20;94235.16;;;27.65;37.39
8280;BME280;8335;42.646;23.380;2022-09-12T10:26:52;94231.38;;;27.47;37.83
8280;BME280;8335;42.646;23.380;2022-09-12T10:29:23;94235.59;;;27.26;38.59
8280;BME280;8335;42.646;23.380;2022-09-12T10:31:52;94231.44;;;27.10;38.58
8280;BME280;8335;42.646;23.380;2022-09-12T10:34:29;94225.28;;;27.18;38.51
8280;BME280;8335;42.646;23.380;2022-09-12T10:37:00;94241.69;;;27.55;39.46
8280;BME280;8335;42.646;23.380;2022-09-12T10:39:28;94230.06;;;27.85;38.46
8280;BME280;8335;42.646;23.380;2022-09-12T10:41:57;94231.59;;;27.73;38.13
8280;BME280;8335;42.646;23.380;2022-09-12T10:44:26;94232.78;;;27.49;39.46
8280;BME280;8335;42.646;23.380;2022-09-12T10:46:54;94240.09;;;27.32;40.29
8280;BME280;8335;42.646;23.380;2022-09-12T10:49:24;94236.25;;;27.56;40.43
8280;BME280;8335;42.646;23.380;2022-09-12T10:51:53;94226.50;;;27.65;39.04
8280;BME280;8335;42.646;23.380;2022-09-12T10:54:22;94223.03;;;27.58;38.78
8280;BME280;8335;42.646;23.380;2022-09-12T10:57:00;94239.88;;;27.55;37.30
8280;BME280;8335;42.646;23.380;2022-09-12T10:59:39;94232.13;;;27.19;37.79
8280;BME280;8335;42.646;23.380;2022-09-12T11:02:23;94223.63;;;26.74;38.46
8280;BME280;8335;42.646;23.380;2022-09-12T11:05:01;94234.44;;;26.56;38.58
8280;BME280;8335;42.646;23.380;2022-09-12T11:07:45;94233.03;;;26.39;38.30
8280;BME280;8335;42.646;23.380;2022-09-12T11:10:33;94231.47;;;25.86;39.79
8280;BME280;8335;42.646;23.380;2022-09-12T11:13:16;94228.56;;;25.66;41.93
8280;BME280;8335;42.646;23.380;2022-09-12T11:16:01;94222.41;;;25.44;42.70
8280;BME280;8335;42.646;23.380;2022-09-12T11:18:43;94221.75;;;25.42;42.12
8280;BME280;8335;42.646;23.380;2022-09-12T11:21:24;94216.88;;;25.24;42.47
8280;BME280;8335;42.646;23.380;2022-09-12T11:24:17;94225.13;;;24.82;43.52
8280;BME280;8335;42.646;23.380;2022-09-12T11:26:56;94223.50;;;24.50;44.64
8280;BME280;8335;42.646;23.380;2022-09-12T11:29:41;94230.16;;;24.52;44.62
8280;BME280;8335;42.646;23.380;2022-09-12T11:32:32;94220.16;;;24.33;44.58
8280;BME280;8335;42.646;23.380;2022-09-12T11:35:09;94221.28;;;24.30;45.42
8280;BME280;8335;42.646;23.380;2022-09-12T11:37:53;94219.22;;;24.17;45.98
8280;BME280;8335;42.646;23.380;2022-09-12T11:40:28;94229.59;;;24.34;45.31
8280;BME280;8335;42.646;23.380;2022-09-12T11:43:00;94210.09;;;24.30;44.26
8280;BME280;8335;42.646;23.380;2022-09-12T11:45:31;94223.63;;;24.17;45.03
8280;BME280;8335;42.646;23.380;2022-09-12T11:48:05;94218.72;;;24.22;44.17
8280;BME280;8335;42.646;23.380;2022-09-12T11:50:33;94215.88;;;24.01;45.59
8280;BME280;8335;42.646;23.380;2022-09-12T11:53:04;94216.41;;;23.88;46.96
8280;BME280;8335;42.646;23.380;2022-09-12T11:55:46;94223.69;;;23.93;47.08
8280;BME280;8335;42.646;23.380;2022-09-12T11:58:17;94226.66;;;23.81;47.42
8280;BME280;8335;42.646;23.380;2022-09-12T12:00:46;94201.50;;;23.41;48.11
8280;BME280;8335;42.646;23.380;2022-09-12T12:03:19;94222.47;;;23.40;48.86
8280;BME280;8335;42.646;23.380;2022-09-12T12:05:53;94233.84;;;23.39;49.15
8280;BME280;8335;42.646;23.380;2022-09-12T12:08:21;94226.06;;;23.22;49.71
8280;BME280;8335;42.646;23.380;2022-09-12T12:10:53;94225.03;;;23.07;49.94
8280;BME280;8335;42.646;23.380;2022-09-12T12:13:24;94218.56;;;22.87;52.23
8280;BME280;8335;42.646;23.380;2022-09-12T12:15:55;94220.50;;;22.93;52.08
8280;BME280;8335;42.646;23.380;2022-09-12T12:18:24;94219.34;;;22.79;50.10
8280;BME280;8335;42.646;23.380;2022-09-12T12:20:52;94203.59;;;22.72;50.65
8280;BME280;8335;42.646;23.380;2022-09-12T12:23:25;94211.69;;;22.77;49.34
8280;BME280;8335;42.646;23.380;2022-09-12T12:25:56;94219.47;;;22.69;50.34
8280;BME280;8335;42.646;23.380;2022-09-12T12:28:57;94208.44;;;22.67;49.55
8280;BME280;8335;42.646;23.380;2022-09-12T12:31:24;94205.19;;;22.65;50.47
8280;BME280;8335;42.646;23.380;2022-09-12T12:33:53;94200.47;;;22.69;51.60
8280;BME280;8335;42.646;23.380;2022-09-12T12:36:38;94195.44;;;22.59;51.19
8280;BME280;8335;42.646;23.380;2022-09-12T12:46:01;94211.44;;;22.30;50.21
8280;BME280;8335;42.646;23.380;2022-09-12T12:48:35;94220.00;;;22.22;51.19
8280;BME280;8335;42.646;23.380;2022-09-12T12:54:50;94204.69;;;22.11;51.83
8280;BME280;8335;42.646;23.380;2022-09-12T12:57:25;94178.84;;;21.93;52.64
8280;BME280;8335;42.646;23.380;2022-09-12T12:59:54;94205.44;;;22.30;52.49
8280;BME280;8335;42.646;23.380;2022-09-12T13:02:27;94195.16;;;22.20;52.95
8280;BME280;8335;42.646;23.380;2022-09-12T13:04:57;94206.25;;;22.38;52.70
8280;BME280;8335;42.646;23.380;2022-09-12T13:07:29;94198.47;;;22.38;51.31
8280;BME280;8335;42.646;23.380;2022-09-12T13:09:58;94206.25;;;22.38;51.72
8280;BME280;8335;42.646;23.380;2022-09-12T13:12:27;94223.66;;;22.54;51.04
8280;BME280;8335;42.646;23.380;2022-09-12T13:14:57;94227.69;;;22.57;50.16
8280;BME280;8335;42.646;23.380;2022-09-12T13:17:29;94224.41;;;22.38;51.55
8280;BME280;8335;42.646;23.380;2022-09-12T13:20:16;94219.22;;;22.38;51.81
8280;BME280;8335;42.646;23.380;2022-09-12T13:22:44;94212.41;;;22.37;52.81
8280;BME280;8335;42.646;23.380;2022-09-12T13:25:23;94207.22;;;22.37;52.02
8280;BME280;8335;42.646;23.380;2022-09-12T13:28:13;94207.25;;;22.53;51.64
8280;BME280;8335;42.646;23.380;2022-09-12T13:30:42;94209.88;;;22.53;51.58
8280;BME280;8335;42.646;23.380;2022-09-12T13:33:23;94205.00;;;22.50;52.28
8280;BME280;8335;42.646;23.380;2022-09-12T13:36:10;94178.34;;;22.24;52.55
8280;BME280;8335;42.646;23.380;2022-09-12T13:38:50;94205.63;;;22.44;52.03
8280;BME280;8335;42.646;23.380;2022-09-12T13:41:31;94214.53;;;22.42;50.66
8280;BME280;8335;42.646;23.380;2022-09-12T13:44:07;94206.06;;;22.32;50.00